createdAt,value
2017-05-06T11:10:01.834Z,17.0
2017-05-06T11:20:01.475Z,16.1679479894
2017-05-06T11:30:01.966Z,13.7532642348
2017-05-06T11:40:01.450Z,9.99231485782
2017-05-06T11:50:02.062Z,5.25324786807
2017-05-06T12:00:01.523Z,-4.37370055995e-05
2017-05-06T12:10:02.021Z,-5.2533310608
2017-05-06T12:20:01.587Z,-9.99238562577
2017-05-06T12:30:02.101Z,-13.7533156507
2017-05-06T12:40:01.586Z,-16.1679750204
2017-05-06T12:50:02.190Z,-16.9999999999
2017-05-06T13:00:01.728Z,-16.1679461696
2017-05-06T13:10:02.631Z,-13.7532607733
2017-05-06T13:20:02.423Z,-9.99231009352
2017-05-06T13:30:02.139Z,-5.25324226731
2017-05-06T13:40:01.608Z,4.96259839512e-05
2017-05-06T13:50:02.138Z,5.25333666154
2017-05-06T14:00:01.637Z,9.99239039005
2017-05-06T14:10:02.079Z,13.7533191122
2017-05-06T14:20:01.698Z,16.1679768401
2017-05-06T14:30:02.273Z,16.9999999999
2017-05-06T14:40:02.834Z,16.1679443498
2017-05-06T14:50:01.629Z,13.7532573119
2017-05-06T15:00:02.784Z,16.167960777
2017-05-06T15:10:02.276Z,13.7532889044
2017-05-06T15:20:01.924Z,9.99234928897
2017-05-06T15:30:02.476Z,5.25328890437
2017-05-06T15:40:01.980Z,-6.94054396131e-11
2017-05-06T15:50:01.582Z,-5.25328890446
2017-05-06T16:00:02.220Z,-9.99234928906
2017-05-06T16:10:02.605Z,-13.7532889044
2017-05-06T16:20:02.169Z,-16.1679607771
2017-05-06T16:30:01.654Z,-17.0
2017-05-06T16:50:02.321Z,-16.167960777
2017-05-06T17:00:01.783Z,-13.7532889043
2017-05-06T17:20:01.794Z,-9.9923492888
2017-05-06T17:30:02.321Z,-5.25328890416
2017-05-06T17:40:01.940Z,2.42925221258e-10
2017-05-06T17:50:01.776Z,5.25328890462
2017-05-06T18:00:02.430Z,9.9923492892
2017-05-06T18:10:02.143Z,13.7532889045
2017-05-06T18:20:02.002Z,16.1679607771
2017-05-06T18:30:01.609Z,17.0
2017-05-06T18:40:02.068Z,16.1679607769
2017-05-06T18:50:01.635Z,13.7532889042
2017-05-06T19:00:02.117Z,9.99234928866
2017-05-06T19:10:01.678Z,5.25328890399
2017-05-06T19:20:02.252Z,-4.16441228145e-10
2017-05-06T19:30:01.766Z,-5.25328890479
2017-05-06T19:40:02.315Z,-9.99234928934
2017-05-06T19:50:02.247Z,-13.7532889046
2017-05-06T20:00:01.864Z,-16.1679607772
2017-05-06T20:10:02.481Z,-17.0
2017-05-06T20:20:02.087Z,-16.1679607769
2017-05-06T20:30:01.584Z,-13.7532889041
2017-05-06T20:40:02.049Z,-9.9923492888
2017-05-06T20:50:01.711Z,-5.25328890351
2017-05-06T21:00:02.207Z,1.60994222039e-09
2017-05-06T21:10:01.670Z,5.25328890657
2017-05-06T21:20:02.385Z,9.9923492914
2017-05-06T21:30:01.850Z,13.7532889066
2017-05-06T21:40:02.331Z,16.1679607784
2017-05-06T21:50:01.897Z,17.0
2017-05-06T22:00:02.439Z,16.1679607752
2017-05-06T22:10:01.915Z,13.7532889006
2017-05-06T22:20:01.503Z,9.99234928316
2017-05-06T22:30:02.018Z,5.25328889687
2017-05-06T22:40:01.883Z,-8.58345878991e-09
2017-05-06T22:50:01.470Z,-5.2532889132
2017-05-06T23:00:02.211Z,-9.99234929704
2017-05-06T23:10:01.749Z,-13.7532889106
